Time;durP1;ratioP1;P1;durP2;ratioP2;P2;SDS_P1;SDS_P2;PMS_P1;PMS_P2;Temp;Humidity;BMP_temperature;BMP_pressure;BME280_temperature;BME280_humidity;BME280_pressure;Samples;Min_cycle;Max_cycle;Signal;HPM_P1;HPM_P2
2021/05/22 00:02:20;;;;;;;3.17;1.20;;;18.00;52.70;;;;;;5014831;28;20033;-70
2021/05/22 00:04:49;;;;;;;2.30;1.30;;;18.00;52.70;;;;;;5014719;28;20037;-70
2021/05/22 00:07:15;;;;;;;1.70;1.38;;;18.00;52.70;;;;;;5014689;28;20033;-70
2021/05/22 00:09:41;;;;;;;2.22;1.10;;;18.00;52.70;;;;;;5014702;28;20033;-70
2021/05/22 00:12:08;;;;;;;3.28;0.88;;;18.00;52.60;;;;;;5014514;28;20535;-70
2021/05/22 00:14:34;;;;;;;6.22;2.80;;;18.00;52.50;;;;;;5014258;28;20026;-70
2021/05/22 00:17:00;;;;;;;2.50;1.50;;;18.00;52.80;;;;;;5014143;28;20026;-70
2021/05/22 00:19:25;;;;;;;1.70;1.00;;;18.00;52.80;;;;;;5013422;28;20105;-70
2021/05/22 00:21:54;;;;;;;2.22;1.10;;;18.00;52.70;;;;;;5014684;28;20503;-70
2021/05/22 00:24:20;;;;;;;0.95;0.85;;;18.00;52.90;;;;;;5014553;28;20045;-70
2021/05/22 00:26:46;;;;;;;3.13;0.98;;;18.00;52.80;;;;;;5014744;28;20080;-70
2021/05/22 00:29:12;;;;;;;1.85;0.95;;;18.00;53.00;;;;;;5014368;28;20026;-70
2021/05/22 00:31:37;;;;;;;1.45;0.80;;;18.00;53.00;;;;;;5013090;28;20030;-70
2021/05/22 00:34:04;;;;;;;0.85;0.70;;;17.90;53.00;;;;;;5021833;28;20458;-70
2021/05/22 00:36:29;;;;;;;0.95;0.80;;;18.00;53.20;;;;;;5031413;28;20387;-70
2021/05/22 00:38:55;;;;;;;5.78;1.15;;;17.90;53.20;;;;;;5016858;28;20018;-70
2021/05/22 00:41:21;;;;;;;1.15;0.80;;;17.90;53.30;;;;;;5013302;28;20069;-70
2021/05/22 00:43:47;;;;;;;2.65;1.02;;;17.90;53.40;;;;;;5012277;28;20018;-70
2021/05/22 00:46:12;;;;;;;1.98;0.73;;;17.90;53.30;;;;;;5013699;28;20022;-70
2021/05/22 00:48:39;;;;;;;2.75;0.77;;;17.90;53.30;;;;;;5018133;28;20049;-70
2021/05/22 00:51:05;;;;;;;1.30;0.68;;;17.90;53.10;;;;;;5032261;28;20033;-70
2021/05/22 00:53:31;;;;;;;1.15;1.00;;;17.90;52.90;;;;;;5033705;28;20040;-70
2021/05/22 00:55:58;;;;;;;1.67;0.75;;;17.80;52.70;;;;;;5033740;28;20032;-70
2021/05/22 00:58:24;;;;;;;0.90;0.70;;;17.90;52.60;;;;;;5033472;28;20030;-70
2021/05/22 01:00:54;;;;;;;2.05;0.85;;;17.80;52.30;;;;;;5033614;28;20096;-70
2021/05/22 01:03:25;;;;;;;4.47;0.70;;;17.80;52.10;;;;;;5027769;28;20040;-70
2021/05/22 01:05:59;;;;;;;3.00;0.75;;;17.70;52.00;;;;;;5013820;28;20369;-70
2021/05/22 01:08:25;;;;;;;0.40;0.40;;;17.70;51.70;;;;;;5013875;28;20153;-70
2021/05/22 01:11:01;;;;;;;0.90;0.50;;;17.70;51.60;;;;;;5013571;28;20029;-70
2021/05/22 01:13:30;;;;;;;1.17;0.60;;;17.70;51.60;;;;;;5013768;28;20025;-70
2021/05/22 01:15:58;;;;;;;1.30;0.70;;;17.60;51.30;;;;;;5012764;28;20017;-70
2021/05/22 01:18:25;;;;;;;0.32;0.32;;;17.60;51.20;;;;;;5013615;28;20026;-70
2021/05/22 01:20:55;;;;;;;1.45;0.60;;;17.60;51.20;;;;;;5013553;28;20479;-70
2021/05/22 01:23:32;;;;;;;2.13;0.60;;;17.60;51.20;;;;;;5013612;28;20034;-70
2021/05/22 01:25:58;;;;;;;0.80;0.52;;;17.60;51.20;;;;;;5028594;28;20125;-70
2021/05/22 01:28:24;;;;;;;0.70;0.50;;;17.60;51.20;;;;;;5013261;28;20029;-70
2021/05/22 01:30:50;;;;;;;1.13;0.63;;;17.60;51.20;;;;;;5013229;28;20471;-70
2021/05/22 01:33:22;;;;;;;1.13;0.68;;;17.50;51.10;;;;;;5013553;28;20097;-70
2021/05/22 01:35:48;;;;;;;1.10;0.68;;;17.50;51.10;;;;;;5013404;28;20050;-70
2021/05/22 01:38:14;;;;;;;1.85;0.60;;;17.60;51.10;;;;;;5013392;28;20072;-70
2021/05/22 01:40:40;;;;;;;1.05;0.50;;;17.60;51.20;;;;;;5013232;28;20034;-70
2021/05/22 01:43:08;;;;;;;0.75;0.50;;;17.50;51.00;;;;;;5012079;28;20025;-70
2021/05/22 01:45:41;;;;;;;1.60;0.63;;;17.50;51.00;;;;;;5013235;28;20029;-70
2021/05/22 01:48:09;;;;;;;1.13;0.50;;;17.50;51.00;;;;;;5013332;28;20025;-70
2021/05/22 01:50:41;;;;;;;0.90;0.63;;;17.50;51.00;;;;;;5028329;28;20368;-70
2021/05/22 01:53:10;;;;;;;3.10;1.05;;;17.50;51.00;;;;;;5013077;28;20099;-70
2021/05/22 01:55:38;;;;;;;1.63;0.90;;;17.50;51.00;;;;;;5028380;28;20022;-70
2021/05/22 01:58:05;;;;;;;2.17;0.70;;;17.40;50.90;;;;;;5013137;28;20018;-70
2021/05/22 02:00:31;;;;;;;1.10;0.80;;;17.50;51.00;;;;;;5013163;28;20037;-70
2021/05/22 02:03:05;;;;;;;0.95;0.73;;;17.40;51.00;;;;;;5011689;28;20054;-70
2021/05/22 02:05:32;;;;;;;1.27;0.70;;;17.40;51.00;;;;;;5013063;28;20032;-70
2021/05/22 02:07:59;;;;;;;3.08;0.68;;;17.40;51.20;;;;;;5013011;28;20037;-70
2021/05/22 02:10:26;;;;;;;0.70;0.63;;;17.40;51.30;;;;;;5012762;28;20480;-70
2021/05/22 02:12:55;;;;;;;0.70;0.50;;;17.30;51.30;;;;;;5012982;28;20018;-71
2021/05/22 02:15:23;;;;;;;4.13;0.60;;;17.30;51.30;;;;;;5011584;28;20026;-70
2021/05/22 02:17:49;;;;;;;1.67;1.10;;;17.30;51.50;;;;;;5011695;28;20105;-70
2021/05/22 02:20:17;;;;;;;2.10;1.00;;;17.30;51.70;;;;;;5012901;28;20030;-71
2021/05/22 02:22:45;;;;;;;0.93;0.75;;;17.20;51.90;;;;;;5012948;28;20109;-70
2021/05/22 02:25:13;;;;;;;2.85;0.75;;;17.20;52.10;;;;;;5012852;28;20033;-70
2021/05/22 02:27:39;;;;;;;2.75;1.05;;;17.20;52.60;;;;;;5012785;28;20395;-70
2021/05/22 02:30:08;;;;;;;0.60;0.50;;;17.10;53.10;;;;;;5012580;28;20026;-70
2021/05/22 02:32:46;;;;;;;1.65;0.80;;;17.10;52.90;;;;;;5012818;28;20427;-70
2021/05/22 02:35:14;;;;;;;2.85;0.90;;;17.10;53.20;;;;;;5011954;28;20101;-70
2021/05/22 02:37:40;;;;;;;1.25;0.70;;;16.90;53.80;;;;;;5016445;28;20037;-70
2021/05/22 02:40:15;;;;;;;1.13;0.85;;;16.80;54.50;;;;;;5015809;28;20464;-71
2021/05/22 02:42:46;;;;;;;1.55;0.60;;;16.70;54.90;;;;;;5015963;28;20026;-70
2021/05/22 02:45:12;;;;;;;2.80;0.88;;;16.60;55.20;;;;;;5016270;28;20030;-71
2021/05/22 02:47:41;;;;;;;1.45;1.10;;;16.40;55.50;;;;;;5016216;28;20060;-70
2021/05/22 02:50:09;;;;;;;2.13;1.05;;;16.30;56.00;;;;;;5014881;28;20030;-71
2021/05/22 02:52:37;;;;;;;1.00;0.68;;;16.10;56.10;;;;;;5015999;28;20052;-70
2021/05/22 02:55:06;;;;;;;1.00;0.80;;;16.00;57.50;;;;;;5016125;28;20054;-71
2021/05/22 02:57:33;;;;;;;0.90;0.70;;;16.00;57.80;;;;;;5016085;28;20101;-71
2021/05/22 03:00:00;;;;;;;1.55;0.47;;;15.80;57.90;;;;;;5015983;28;20026;-71
2021/05/22 03:02:27;;;;;;;0.80;0.70;;;15.80;57.90;;;;;;5016047;28;20022;-72
2021/05/22 03:04:54;;;;;;;1.55;0.70;;;15.70;58.10;;;;;;5016168;28;20404;-71
2021/05/22 03:07:20;;;;;;;0.68;0.55;;;15.60;57.30;;;;;;5015970;28;20418;-71
2021/05/22 03:09:47;;;;;;;0.88;0.68;;;15.60;57.30;;;;;;5015780;28;20033;-72
2021/05/22 03:12:19;;;;;;;1.85;0.52;;;15.50;57.00;;;;;;5015911;28;20053;-71
2021/05/22 03:14:45;;;;;;;1.52;0.68;;;15.40;57.40;;;;;;5014543;28;20021;-72
2021/05/22 03:17:11;;;;;;;0.68;0.50;;;15.30;58.00;;;;;;5015743;28;20107;-73
2021/05/22 03:19:36;;;;;;;0.40;0.40;;;15.20;58.30;;;;;;5014401;28;20117;-73
2021/05/22 03:22:02;;;;;;;0.65;0.55;;;15.10;58.90;;;;;;5015706;28;20038;-73
2021/05/22 03:24:28;;;;;;;1.55;0.60;;;15.10;59.30;;;;;;5015700;28;20030;-73
2021/05/22 03:26:54;;;;;;;0.88;0.60;;;15.00;59.40;;;;;;5015584;28;20030;-73
2021/05/22 03:29:20;;;;;;;0.73;0.70;;;15.00;59.70;;;;;;5015352;28;20026;-74
2021/05/22 03:31:46;;;;;;;0.73;0.52;;;14.90;60.10;;;;;;5015547;28;20030;-74
2021/05/22 03:34:12;;;;;;;1.25;0.60;;;15.00;60.00;;;;;;5015655;28;20026;-74
2021/05/22 03:36:38;;;;;;;0.85;0.60;;;14.90;59.80;;;;;;5015400;28;20021;-74
2021/05/22 03:39:04;;;;;;;1.25;0.55;;;14.90;59.80;;;;;;5015351;28;20426;-74
2021/05/22 03:41:30;;;;;;;1.00;0.47;;;14.90;59.80;;;;;;5015380;28;20057;-73
2021/05/22 03:43:56;;;;;;;0.93;0.50;;;14.80;59.50;;;;;;5015602;28;20025;-73
2021/05/22 03:46:21;;;;;;;0.68;0.60;;;14.80;59.60;;;;;;5015139;28;20025;-74
2021/05/22 03:48:49;;;;;;;0.73;0.38;;;14.80;59.70;;;;;;5015096;28;20018;-74
2021/05/22 03:51:15;;;;;;;2.15;0.40;;;14.80;59.90;;;;;;5014731;28;20053;-74
2021/05/22 03:53:40;;;;;;;0.88;0.40;;;14.70;60.00;;;;;;5015081;28;20144;-73
2021/05/22 03:56:06;;;;;;;1.38;0.30;;;14.80;60.10;;;;;;5015081;28;20022;-74
2021/05/22 03:58:32;;;;;;;0.40;0.40;;;14.70;60.00;;;;;;5013741;28;20426;-74
2021/05/22 04:00:58;;;;;;;0.82;0.43;;;14.70;59.90;;;;;;5030141;28;20053;-73
2021/05/22 04:03:24;;;;;;;2.70;0.80;;;14.70;60.00;;;;;;5014836;28;20064;-73
2021/05/22 04:05:50;;;;;;;0.28;0.20;;;14.70;60.00;;;;;;5014792;28;20452;-73
2021/05/22 04:08:16;;;;;;;1.58;0.38;;;14.60;60.00;;;;;;5014858;28;20029;-73
2021/05/22 04:10:42;;;;;;;0.60;0.20;;;14.60;60.00;;;;;;5014749;28;20032;-73
2021/05/22 04:13:08;;;;;;;1.30;0.55;;;14.60;60.20;;;;;;5014763;28;20026;-73
2021/05/22 04:15:34;;;;;;;0.60;0.43;;;14.60;60.30;;;;;;5019814;28;20032;-73
2021/05/22 04:18:00;;;;;;;1.95;0.50;;;14.60;59.90;;;;;;5034449;28;20021;-73
2021/05/22 04:20:26;;;;;;;1.52;0.50;;;14.60;59.90;;;;;;5034440;28;20026;-72
2021/05/22 04:22:52;;;;;;;1.40;0.65;;;14.60;59.90;;;;;;5033075;28;20029;-72
2021/05/22 04:25:18;;;;;;;0.80;0.50;;;14.60;60.00;;;;;;5034322;28;20365;-72
2021/05/22 04:27:44;;;;;;;2.78;0.73;;;14.60;60.00;;;;;;5016013;28;20034;-72
2021/05/22 04:30:10;;;;;;;1.40;0.57;;;14.60;59.90;;;;;;5014377;28;20440;-72
2021/05/22 04:32:36;;;;;;;3.05;0.50;;;14.60;60.20;;;;;;5014400;28;20160;-72
2021/05/22 04:35:03;;;;;;;5.50;0.82;;;14.60;60.00;;;;;;5014679;28;20101;-72
2021/05/22 04:37:29;;;;;;;2.28;1.10;;;14.60;60.00;;;;;;5014234;28;20026;-72
2021/05/22 04:39:55;;;;;;;2.67;0.63;;;14.60;59.80;;;;;;5014301;28;20022;-71
2021/05/22 04:42:20;;;;;;;3.30;0.88;;;14.70;60.20;;;;;;5014289;28;20159;-71
2021/05/22 04:44:46;;;;;;;2.00;0.80;;;14.70;60.50;;;;;;5014248;28;20084;-71
2021/05/22 04:47:12;;;;;;;1.92;0.73;;;14.80;60.60;;;;;;5012937;28;20497;-71
2021/05/22 04:49:38;;;;;;;1.90;0.52;;;14.80;60.60;;;;;;5014067;28;20061;-71
2021/05/22 04:52:04;;;;;;;1.95;0.65;;;14.80;60.60;;;;;;5013889;28;20046;-71
2021/05/22 04:54:30;;;;;;;4.03;0.60;;;14.90;60.80;;;;;;5014202;28;20116;-71
2021/05/22 04:56:55;;;;;;;0.90;0.45;;;15.00;60.60;;;;;;5029256;28;20022;-71
2021/05/22 04:59:22;;;;;;;3.95;0.65;;;15.00;60.40;;;;;;5014021;28;20045;-71
2021/05/22 05:01:48;;;;;;;1.27;0.60;;;15.00;60.60;;;;;;5013457;28;20026;-71
2021/05/22 05:04:13;;;;;;;3.00;0.80;;;15.00;60.70;;;;;;5014196;28;20503;-70
2021/05/22 05:06:39;;;;;;;1.92;0.77;;;15.00;60.70;;;;;;5028979;28;20117;-70
2021/05/22 05:09:06;;;;;;;2.40;0.95;;;15.10;60.60;;;;;;5028850;28;20030;-71
2021/05/22 05:11:33;;;;;;;1.10;0.50;;;15.10;60.60;;;;;;5013749;28;20486;-71
2021/05/22 05:13:59;;;;;;;1.17;0.47;;;15.10;60.50;;;;;;5013757;28;20026;-71
2021/05/22 05:16:25;;;;;;;0.52;0.40;;;15.20;60.80;;;;;;5012414;28;20025;-70
2021/05/22 05:18:51;;;;;;;1.25;0.43;;;15.30;61.20;;;;;;5013627;28;20029;-71
2021/05/22 05:21:18;;;;;;;2.10;0.80;;;15.40;61.20;;;;;;5013572;28;20305;-71
2021/05/22 05:23:43;;;;;;;2.95;0.57;;;15.40;60.20;;;;;;5013800;28;20479;-70
2021/05/22 05:26:09;;;;;;;1.25;0.60;;;15.50;60.40;;;;;;5013402;28;20096;-71
2021/05/22 05:28:35;;;;;;;1.63;0.68;;;15.60;60.70;;;;;;5013504;28;20104;-71
2021/05/22 05:31:01;;;;;;;4.97;0.63;;;15.60;61.50;;;;;;5013399;28;20167;-71
2021/05/22 05:33:28;;;;;;;1.35;0.60;;;15.70;61.10;;;;;;5013538;28;20030;-71
2021/05/22 05:35:54;;;;;;;0.98;0.50;;;15.80;60.70;;;;;;5013442;28;20045;-70
2021/05/22 05:38:20;;;;;;;3.10;0.77;;;15.80;60.20;;;;;;5013322;28;20021;-71
2021/05/22 05:40:46;;;;;;;0.75;0.40;;;15.90;60.20;;;;;;5013291;28;20029;-71
2021/05/22 05:43:13;;;;;;;5.47;0.80;;;15.90;60.10;;;;;;5013229;28;20040;-71
2021/05/22 05:45:40;;;;;;;0.88;0.60;;;15.90;59.90;;;;;;5013291;28;20022;-71
2021/05/22 05:48:07;;;;;;;1.58;0.68;;;16.00;60.30;;;;;;5013189;28;20025;-71
2021/05/22 05:50:34;;;;;;;2.30;0.43;;;16.10;60.00;;;;;;5011838;28;20088;-71
2021/05/22 05:53:00;;;;;;;0.77;0.60;;;16.10;60.10;;;;;;5013038;28;20048;-71
2021/05/22 05:55:26;;;;;;;2.15;0.50;;;16.20;59.80;;;;;;5011925;28;20052;-71
2021/05/22 05:57:55;;;;;;;1.23;0.40;;;16.20;59.50;;;;;;5013174;28;20025;-71
2021/05/22 06:00:22;;;;;;;0.77;0.60;;;16.20;59.10;;;;;;5013098;28;20026;-71
2021/05/22 06:02:48;;;;;;;0.70;0.50;;;16.30;59.00;;;;;;5012927;28;20033;-71
2021/05/22 06:05:14;;;;;;;3.08;0.60;;;16.30;59.20;;;;;;5011831;28;20025;-71
2021/05/22 06:07:40;;;;;;;2.95;0.80;;;16.30;58.30;;;;;;5016867;28;20030;-71
2021/05/22 06:10:07;;;;;;;2.50;0.50;;;16.30;58.00;;;;;;5031664;28;20036;-71
2021/05/22 06:12:34;;;;;;;1.35;0.60;;;16.20;58.30;;;;;;5032664;28;20522;-71
2021/05/22 06:17:42;;;;;;;1.15;0.63;;;16.20;58.20;;;;;;5036933;28;20029;-71
2021/05/22 06:20:08;;;;;;;1.25;0.63;;;16.20;58.20;;;;;;5035042;28;20088;-71
2021/05/22 06:22:34;;;;;;;3.38;0.47;;;16.20;58.40;;;;;;5024043;28;20058;-71
2021/05/22 06:25:00;;;;;;;0.57;0.47;;;16.20;58.90;;;;;;5018991;28;20025;-72
2021/05/22 06:27:26;;;;;;;3.38;0.43;;;16.30;59.20;;;;;;5028882;28;20032;-71
2021/05/22 06:29:52;;;;;;;3.75;0.80;;;16.40;59.80;;;;;;5035133;28;20025;-72
2021/05/22 06:32:18;;;;;;;3.42;0.82;;;16.50;59.70;;;;;;5036409;28;20061;-71
2021/05/22 06:34:44;;;;;;;2.25;0.68;;;16.60;60.10;;;;;;5036349;28;20036;-72
2021/05/22 06:37:11;;;;;;;3.00;0.98;;;16.70;60.60;;;;;;5035103;28;20076;-71
2021/05/22 06:39:36;;;;;;;1.23;0.70;;;16.90;60.70;;;;;;5036279;28;20036;-72
2021/05/22 06:42:02;;;;;;;3.75;0.50;;;17.10;61.00;;;;;;5036164;28;20021;-71
2021/05/22 06:44:34;;;;;;;1.17;0.57;;;17.40;61.50;;;;;;5036132;28;20033;-71
2021/05/22 06:47:00;;;;;;;4.65;0.80;;;17.50;58.90;;;;;;5036144;28;20368;-72
2021/05/22 06:49:31;;;;;;;1.85;0.70;;;17.70;58.20;;;;;;5036027;28;20030;-71
2021/05/22 06:52:01;;;;;;;1.90;0.85;;;17.80;58.40;;;;;;5035096;28;20041;-71
2021/05/22 06:54:29;;;;;;;3.45;0.88;;;17.80;57.40;;;;;;5036082;28;20018;-73
2021/05/22 06:56:55;;;;;;;0.70;0.60;;;17.80;56.60;;;;;;5035925;28;20017;-72
2021/05/22 06:59:21;;;;;;;0.55;0.40;;;17.70;55.20;;;;;;5035935;28;20033;-71
2021/05/22 07:01:47;;;;;;;1.73;0.60;;;17.60;55.40;;;;;;5029785;28;20029;-72
2021/05/22 07:04:13;;;;;;;1.33;0.80;;;17.50;55.80;;;;;;5035230;28;20025;-72
2021/05/22 07:06:39;;;;;;;2.35;0.75;;;17.50;56.40;;;;;;5035529;28;20083;-72
2021/05/22 07:09:05;;;;;;;2.33;0.50;;;17.40;56.60;;;;;;5035317;28;20382;-72
2021/05/22 07:11:33;;;;;;;1.85;0.50;;;17.30;56.30;;;;;;5026701;28;20037;-72
2021/05/22 07:13:59;;;;;;;0.28;0.20;;;17.30;55.80;;;;;;5017905;28;20034;-72
2021/05/22 07:16:25;;;;;;;0.80;0.57;;;17.20;56.10;;;;;;5029254;28;20372;-73
2021/05/22 07:18:50;;;;;;;3.65;0.47;;;17.10;56.80;;;;;;5035371;28;20029;-72
2021/05/22 07:21:16;;;;;;;1.83;0.60;;;17.10;56.50;;;;;;5039633;28;20036;-73
2021/05/22 07:23:42;;;;;;;0.63;0.40;;;17.10;56.20;;;;;;5034378;28;20022;-73
2021/05/22 07:26:08;;;;;;;0.73;0.55;;;17.10;56.10;;;;;;5034930;28;20029;-73
2021/05/22 07:28:34;;;;;;;2.85;0.38;;;17.00;56.40;;;;;;5055231;28;20029;-73
2021/05/22 07:31:00;;;;;;;0.80;0.52;;;17.00;56.80;;;;;;5055077;28;20075;-74
2021/05/22 07:33:36;;;;;;;1.10;0.40;;;17.00;56.90;;;;;;5031839;28;20021;-74
2021/05/22 07:36:01;;;;;;;1.88;0.40;;;17.00;56.90;;;;;;5033452;28;20018;-73
2021/05/22 07:38:27;;;;;;;0.60;0.50;;;17.00;56.30;;;;;;5022101;28;20029;-74
2021/05/22 07:40:53;;;;;;;2.45;0.82;;;17.00;56.90;;;;;;5029135;28;20068;-73
2021/05/22 07:43:20;;;;;;;2.15;0.73;;;17.10;56.70;;;;;;5030411;28;20053;-73
2021/05/22 07:45:46;;;;;;;1.80;0.70;;;17.10;57.00;;;;;;5030396;28;20033;-72
2021/05/22 07:48:14;;;;;;;1.38;0.52;;;17.10;57.20;;;;;;5014989;28;20029;-71
2021/05/22 07:50:40;;;;;;;1.20;0.68;;;17.20;58.20;;;;;;5032970;28;20037;-72
2021/05/22 07:53:05;;;;;;;1.40;0.70;;;17.40;58.80;;;;;;5038853;28;20167;-71
2021/05/22 07:55:31;;;;;;;1.90;0.82;;;17.50;58.70;;;;;;5031684;28;20104;-71
2021/05/22 07:57:57;;;;;;;1.98;0.57;;;17.70;57.20;;;;;;5014954;28;20414;-71
2021/05/22 08:00:24;;;;;;;1.85;0.55;;;17.90;56.40;;;;;;5026445;28;20043;-71
2021/05/22 08:02:49;;;;;;;0.55;0.50;;;18.10;56.10;;;;;;5029526;28;20040;-70
2021/05/22 08:05:15;;;;;;;0.68;0.40;;;18.30;56.00;;;;;;5024835;28;20472;-70
2021/05/22 08:07:42;;;;;;;1.10;0.73;;;18.50;54.50;;;;;;5025424;28;20034;-70
2021/05/22 08:10:09;;;;;;;3.30;1.60;;;18.60;54.90;;;;;;5018486;28;20080;-70
2021/05/22 08:12:35;;;;;;;0.22;0.20;;;18.80;54.30;;;;;;5017289;28;20113;-67
2021/05/22 08:15:02;;;;;;;1.17;0.50;;;18.90;53.40;;;;;;5034198;28;20036;-69
2021/05/22 08:17:28;;;;;;;0.90;0.57;;;19.00;52.40;;;;;;5034074;28;20072;-69
2021/05/22 08:19:53;;;;;;;1.42;0.70;;;19.10;52.50;;;;;;5033986;28;20022;-69
2021/05/22 08:22:20;;;;;;;0.80;0.55;;;19.20;53.70;;;;;;5034377;28;20026;-68
2021/05/22 08:24:46;;;;;;;1.67;0.60;;;19.40;53.60;;;;;;5054004;28;20056;-69
2021/05/22 08:27:12;;;;;;;1.05;0.73;;;19.60;53.20;;;;;;5053019;28;20037;-69
2021/05/22 08:29:38;;;;;;;1.27;0.60;;;19.80;53.00;;;;;;5034148;28;20075;-69
2021/05/22 08:32:04;;;;;;;0.52;0.50;;;19.90;51.60;;;;;;5044277;28;20482;-69
2021/05/22 08:34:30;;;;;;;1.25;0.55;;;20.10;51.60;;;;;;5052982;28;20017;-69
2021/05/22 08:36:56;;;;;;;1.10;0.90;;;20.20;50.20;;;;;;5038416;28;20047;-69
2021/05/22 08:39:22;;;;;;;1.83;0.82;;;20.20;50.20;;;;;;5023076;28;21476;-69
2021/05/22 08:41:50;;;;;;;2.13;1.02;;;20.30;50.20;;;;;;5013793;28;20041;-69
2021/05/22 08:44:16;;;;;;;2.05;0.77;;;20.40;50.10;;;;;;5013427;28;20030;-69
2021/05/22 08:46:45;;;;;;;1.33;0.63;;;20.50;48.60;;;;;;5017127;28;20364;-69
2021/05/22 08:49:11;;;;;;;2.00;0.77;;;20.50;48.80;;;;;;5026350;28;20025;-69
2021/05/22 08:51:37;;;;;;;1.10;0.50;;;20.60;47.70;;;;;;5033458;28;20045;-69
2021/05/22 08:54:03;;;;;;;1.30;0.52;;;20.60;48.60;;;;;;5017399;28;20056;-69
2021/05/22 08:56:29;;;;;;;0.88;0.55;;;20.80;49.20;;;;;;5031424;28;20363;-69
2021/05/22 08:58:54;;;;;;;3.30;0.45;;;20.90;48.70;;;;;;5033131;28;20430;-69
2021/05/22 09:01:20;;;;;;;0.40;0.30;;;20.90;46.50;;;;;;5033388;28;20033;-69
2021/05/22 09:03:46;;;;;;;0.80;0.50;;;21.00;46.80;;;;;;5032970;28;20029;-69
2021/05/22 09:06:12;;;;;;;2.78;1.05;;;21.00;47.10;;;;;;5032814;28;20430;-69
2021/05/22 09:08:38;;;;;;;1.15;0.65;;;21.00;47.30;;;;;;5031708;28;20483;-69
2021/05/22 09:11:07;;;;;;;1.15;0.60;;;21.10;47.00;;;;;;5032964;28;20036;-69
2021/05/22 09:13:35;;;;;;;1.58;0.60;;;21.10;46.80;;;;;;5033178;28;20022;-69
2021/05/22 09:16:04;;;;;;;4.88;1.08;;;21.20;47.00;;;;;;5033976;28;20488;-69
2021/05/22 09:18:35;;;;;;;1.42;0.85;;;21.30;47.20;;;;;;5040638;28;20508;-69
2021/05/22 09:21:04;;;;;;;2.85;0.93;;;21.50;47.10;;;;;;5012978;28;20034;-69
2021/05/22 09:23:32;;;;;;;1.20;0.50;;;21.60;46.30;;;;;;5026590;28;20029;-69
2021/05/22 09:26:05;;;;;;;2.00;0.73;;;21.60;45.20;;;;;;5030349;28;20025;-69
2021/05/22 09:28:37;;;;;;;0.93;0.68;;;21.50;44.90;;;;;;5025741;28;20029;-69
2021/05/22 09:31:05;;;;;;;4.40;0.85;;;21.40;45.30;;;;;;5031063;28;20104;-69
2021/05/22 09:33:33;;;;;;;1.25;0.70;;;21.30;44.60;;;;;;5018246;28;20391;-69
2021/05/22 09:36:13;;;;;;;1.60;0.90;;;21.30;45.30;;;;;;5028175;28;20091;-69
2021/05/22 09:38:42;;;;;;;1.13;0.63;;;21.20;45.10;;;;;;5029926;28;20025;-69
2021/05/22 09:41:22;;;;;;;1.85;1.00;;;21.10;45.00;;;;;;5030844;28;20035;-69
2021/05/22 09:44:18;;;;;;;1.67;0.75;;;20.90;44.40;;;;;;5034529;28;20045;-69
2021/05/22 09:46:43;;;;;;;2.08;0.70;;;20.70;44.70;;;;;;5030694;28;20029;-69
2021/05/22 09:49:10;;;;;;;2.53;0.85;;;20.60;45.00;;;;;;5032556;28;20430;-69
2021/05/22 09:51:58;;;;;;;0.82;0.60;;;20.40;45.60;;;;;;5031067;28;20037;-69
2021/05/22 09:54:53;;;;;;;1.30;0.60;;;20.20;46.00;;;;;;5028942;28;20053;-69
2021/05/22 09:57:21;;;;;;;;;;;20.20;46.10;;;;;;5031284;28;20032;-69
2021/05/22 10:00:10;;;;;;;0.90;0.50;;;20.20;46.90;;;;;;5031031;28;20290;-69
2021/05/22 10:02:56;;;;;;;4.68;0.93;;;20.30;46.70;;;;;;5028072;28;20017;-69
2021/05/22 10:05:33;;;;;;;3.30;0.80;;;20.50;46.00;;;;;;5031285;28;20033;-69
2021/05/22 10:08:01;;;;;;;1.30;0.80;;;20.70;46.50;;;;;;5030652;28;20391;-69
2021/05/22 10:10:41;;;;;;;2.13;1.05;;;21.00;46.20;;;;;;5031049;28;20112;-69
2021/05/22 10:13:10;;;;;;;5.03;1.70;;;21.10;43.90;;;;;;5029526;28;20022;-70
2021/05/22 10:15:37;;;;;;;6.65;1.55;;;21.30;43.30;;;;;;5030800;28;20021;-70
2021/05/22 10:18:04;;;;;;;5.22;1.20;;;21.30;42.50;;;;;;5029974;28;20160;-68
2021/05/22 10:20:30;;;;;;;13.38;1.45;;;21.30;41.50;;;;;;5030981;28;20426;-70
2021/05/22 10:22:56;;;;;;;5.07;1.25;;;21.30;41.30;;;;;;5030941;28;20018;-68
2021/05/22 10:25:22;;;;;;;4.53;1.35;;;21.20;40.80;;;;;;5031586;28;20061;-68
2021/05/22 10:27:49;;;;;;;2.55;0.85;;;21.10;40.50;;;;;;5030817;28;20080;-68
2021/05/22 10:30:17;;;;;;;3.92;0.75;;;21.00;40.00;;;;;;5030593;28;20033;-68
2021/05/22 10:32:44;;;;;;;3.30;1.02;;;20.90;40.40;;;;;;5030874;28;20519;-68
2021/05/22 10:35:10;;;;;;;5.10;1.00;;;20.80;40.30;;;;;;5030586;28;20152;-70
2021/05/22 10:37:40;;;;;;;3.10;0.88;;;20.70;40.10;;;;;;5030952;28;20017;-67
2021/05/22 10:40:08;;;;;;;4.45;1.00;;;20.70;40.60;;;;;;5032203;28;20029;-70
2021/05/22 10:42:35;;;;;;;3.88;1.20;;;20.70;40.70;;;;;;5029641;28;20386;-70
2021/05/22 10:45:26;;;;;;;4.28;1.05;;;20.80;40.10;;;;;;5029767;28;20033;-67
2021/05/22 10:47:54;;;;;;;3.72;0.88;;;20.90;39.90;;;;;;5029829;28;20026;-67
2021/05/22 10:50:43;;;;;;;3.30;0.95;;;21.00;39.90;;;;;;5028321;28;20458;-67
2021/05/22 10:53:29;;;;;;;5.28;0.93;;;21.10;38.00;;;;;;5029289;28;20130;-68
2021/05/22 10:56:07;;;;;;;4.05;1.27;;;21.20;38.30;;;;;;5044203;28;20080;-67
2021/05/22 10:58:38;;;;;;;1.35;0.60;;;21.30;38.10;;;;;;5030406;28;20020;-67
2021/05/22 11:01:22;;;;;;;2.17;0.98;;;21.40;37.80;;;;;;5031310;28;20533;-69
2021/05/22 11:04:24;;;;;;;;;;;21.40;38.30;;;;;;5033284;28;20030;-67
2021/05/22 11:06:50;;;;;;;5.70;1.00;;;21.50;39.90;;;;;;5034438;28;19909;-67
2021/05/22 11:09:29;;;;;;;5.28;0.95;;;21.50;37.80;;;;;;5033699;28;20030;-67
2021/05/22 11:11:55;;;;;;;5.50;1.10;;;21.40;37.40;;;;;;5031468;28;20024;-70
2021/05/22 11:14:37;;;;;;;2.88;1.00;;;21.40;37.40;;;;;;5033921;28;20048;-69
2021/05/22 11:17:28;;;;;;;2.80;0.70;;;21.40;37.40;;;;;;5030197;28;20545;-69
2021/05/22 11:20:03;;;;;;;2.00;0.73;;;21.40;37.60;;;;;;5031705;28;20478;-67
2021/05/22 11:22:55;;;;;;;3.20;0.80;;;21.30;36.90;;;;;;5030953;28;20021;-67
2021/05/22 11:25:22;;;;;;;1.15;0.60;;;21.30;37.20;;;;;;5032303;28;20030;-67
2021/05/22 11:30:44;;;;;;;1.65;0.73;;;21.40;37.40;;;;;;5033803;28;20091;-68
2021/05/22 11:33:26;;;;;;;5.10;1.00;;;21.50;37.70;;;;;;5031974;28;20093;-70
2021/05/22 11:35:57;;;;;;;6.55;0.82;;;21.50;37.00;;;;;;5033881;28;20018;-70
2021/05/22 11:38:24;;;;;;;1.80;0.85;;;21.60;36.70;;;;;;5032250;28;20493;-69
2021/05/22 11:41:07;;;;;;;0.73;0.38;;;21.70;35.60;;;;;;5033385;28;20022;-67
2021/05/22 11:43:32;;;;;;;3.88;0.73;;;21.80;35.40;;;;;;5022005;28;20021;-70
2021/05/22 11:46:01;;;;;;;2.25;0.73;;;21.90;35.70;;;;;;5019676;28;20037;-70
2021/05/22 11:48:57;;;;;;;1.30;0.50;;;22.00;35.80;;;;;;5023915;28;20022;-70
2021/05/22 11:51:28;;;;;;;2.35;0.80;;;22.10;35.30;;;;;;5024282;28;20463;-68
2021/05/22 11:53:57;;;;;;;1.77;0.60;;;22.20;35.40;;;;;;5035069;28;20045;-68
2021/05/22 11:56:25;;;;;;;2.65;0.75;;;22.20;34.90;;;;;;5015973;28;20514;-68
2021/05/22 11:58:55;;;;;;;4.47;1.00;;;22.20;35.10;;;;;;5014848;28;20033;-67
2021/05/22 12:01:31;;;;;;;2.38;0.70;;;22.20;33.90;;;;;;5014874;28;20040;-68
2021/05/22 12:04:01;;;;;;;2.53;0.95;;;22.20;33.70;;;;;;5014990;28;20037;-68
2021/05/22 12:06:34;;;;;;;2.47;0.77;;;22.20;34.10;;;;;;5029144;28;20030;-68
2021/05/22 12:09:10;;;;;;;1.17;0.40;;;22.10;33.80;;;;;;5015015;28;20017;-68
2021/05/22 12:11:43;;;;;;;2.30;0.73;;;22.10;33.90;;;;;;5014873;28;20030;-68
2021/05/22 12:14:09;;;;;;;1.38;0.63;;;22.20;33.70;;;;;;5019136;28;20375;-68
2021/05/22 12:16:37;;;;;;;1.75;0.60;;;22.10;33.10;;;;;;5015448;28;20030;-68
2021/05/22 12:19:15;;;;;;;2.90;1.50;;;22.20;33.40;;;;;;5019670;28;20145;-68
2021/05/22 12:21:46;;;;;;;2.80;0.60;;;22.20;33.50;;;;;;5034279;28;20034;-68
2021/05/22 12:24:12;;;;;;;3.25;0.90;;;22.20;33.20;;;;;;5032536;28;20013;-68
2021/05/22 12:26:45;;;;;;;0.45;0.35;;;22.20;33.60;;;;;;5034273;28;20494;-68
2021/05/22 12:29:11;;;;;;;2.05;0.60;;;22.30;33.90;;;;;;5033807;28;20036;-68
2021/05/22 12:31:36;;;;;;;2.25;0.63;;;22.40;33.90;;;;;;5034002;28;20096;-68
2021/05/22 12:34:07;;;;;;;2.38;0.73;;;22.50;34.00;;;;;;5031090;28;20025;-68
2021/05/22 12:36:34;;;;;;;3.35;0.82;;;22.60;32.40;;;;;;5034086;28;20107;-68
2021/05/22 12:39:12;;;;;;;1.60;0.60;;;22.70;33.30;;;;;;5033849;28;20090;-68
2021/05/22 12:41:39;;;;;;;2.60;0.90;;;22.70;32.50;;;;;;5023943;28;20104;-68
2021/05/22 12:44:08;;;;;;;2.20;0.60;;;22.80;31.90;;;;;;5015104;28;20091;-67
2021/05/22 12:46:39;;;;;;;3.25;0.52;;;23.00;32.80;;;;;;5033864;28;20372;-68
2021/05/22 12:49:07;;;;;;;3.03;0.70;;;23.10;33.20;;;;;;5031363;28;20052;-68
2021/05/22 12:51:33;;;;;;;1.27;0.50;;;23.20;31.70;;;;;;5013778;28;20038;-68
2021/05/22 12:54:19;;;;;;;3.85;0.57;;;23.40;32.10;;;;;;5014284;28;20105;-70
2021/05/22 12:57:09;;;;;;;1.52;0.63;;;23.50;31.10;;;;;;5033629;28;20417;-68
2021/05/22 12:59:37;;;;;;;1.67;0.45;;;23.60;31.80;;;;;;5033400;28;20033;-68
2021/05/22 13:02:14;;;;;;;3.45;0.90;;;23.70;31.90;;;;;;5033536;28;20029;-68